Time;durP1;ratioP1;P1;durP2;ratioP2;P2;SDS_P1;SDS_P2;PMS_P1;PMS_P2;Temp;Humidity;BMP_temperature;BMP_pressure;BME280_temperature;BME280_humidity;BME280_pressure;Samples;Min_cycle;Max_cycle;Signal;HPM_P1;HPM_P2
2021/08/16 00:00:25;;;;;;;1.80;0.95;;;;;;;;;;4950384;28;20538;-76
2021/08/16 00:02:52;;;;;;;3.00;1.40;;;;;;;;;;4951846;28;20062;-75
2021/08/16 00:05:18;;;;;;;2.53;1.45;;;;;;;;;;4947743;28;20070;-75
2021/08/16 00:07:45;;;;;;;2.92;1.45;;;;;;;;;;4946412;28;20071;-75
2021/08/16 00:10:14;;;;;;;3.45;1.20;;;;;;;;;;4950612;28;20071;-75
2021/08/16 00:12:40;;;;;;;5.00;1.73;;;;;;;;;;4946917;28;20126;-75
2021/08/16 00:15:07;;;;;;;2.15;1.05;;;;;;;;;;4949927;28;20070;-75
2021/08/16 00:17:33;;;;;;;2.83;1.40;;;;;;;;;;4948015;28;20061;-75
2021/08/16 00:20:00;;;;;;;3.10;1.40;;;;;;;;;;4948190;28;20071;-74
2021/08/16 00:22:26;;;;;;;3.05;1.30;;;;;;;;;;4945231;28;20071;-76
2021/08/16 00:24:52;;;;;;;3.20;1.33;;;;;;;;;;4949290;28;20058;-75
2021/08/16 00:27:19;;;;;;;2.75;1.30;;;;;;;;;;4948633;28;20078;-75
2021/08/16 00:29:45;;;;;;;2.50;1.00;;;;;;;;;;4947231;28;20058;-75
2021/08/16 00:32:12;;;;;;;4.30;1.33;;;;;;;;;;4949236;28;20533;-76
2021/08/16 00:34:38;;;;;;;3.17;1.27;;;;;;;;;;4941089;28;20058;-76
2021/08/16 00:37:05;;;;;;;3.00;1.40;;;;;;;;;;4943401;28;20058;-76
2021/08/16 00:39:31;;;;;;;3.20;1.30;;;;;;;;;;4947850;28;20570;-76
2021/08/16 00:41:58;;;;;;;2.50;1.00;;;;;;;;;;4940547;28;20063;-77
2021/08/16 00:44:24;;;;;;;3.13;1.20;;;;;;;;;;4948012;28;20066;-76
2021/08/16 00:46:51;;;;;;;3.03;1.40;;;;;;;;;;4948112;28;20065;-76
2021/08/16 00:49:17;;;;;;;1.83;1.00;;;;;;;;;;4945685;28;20533;-76
2021/08/16 00:51:44;;;;;;;2.40;1.10;;;;;;;;;;4947825;28;20051;-76
2021/08/16 00:54:11;;;;;;;2.20;1.17;;;;;;;;;;4949556;28;20070;-76
2021/08/16 00:56:38;;;;;;;2.55;1.20;;;;;;;;;;4947418;28;20079;-76
2021/08/16 00:59:06;;;;;;;2.10;1.10;;;;;;;;;;4944363;28;20074;-76
2021/08/16 01:01:32;;;;;;;3.22;1.10;;;;;;;;;;4945811;28;20129;-75
2021/08/16 01:03:58;;;;;;;3.25;1.23;;;;;;;;;;4948526;28;20058;-76
2021/08/16 01:06:25;;;;;;;2.08;1.25;;;;;;;;;;4945298;28;20059;-75
2021/08/16 01:08:52;;;;;;;1.98;0.90;;;;;;;;;;4940891;28;20059;-76
2021/08/16 01:11:19;;;;;;;3.25;1.30;;;;;;;;;;4948784;28;20070;-75
2021/08/16 01:13:46;;;;;;;2.67;1.50;;;;;;;;;;4947010;28;20066;-75
2021/08/16 01:16:13;;;;;;;2.55;1.23;;;;;;;;;;4949347;28;20062;-76
2021/08/16 01:18:39;;;;;;;2.83;1.23;;;;;;;;;;4946021;28;20507;-75
2021/08/16 01:21:07;;;;;;;2.50;1.40;;;;;;;;;;4947072;28;20689;-76
2021/08/16 01:23:34;;;;;;;3.03;1.30;;;;;;;;;;4928403;28;20062;-76
2021/08/16 01:26:01;;;;;;;2.38;1.15;;;;;;;;;;4948339;28;20507;-75
2021/08/16 01:28:27;;;;;;;3.40;1.27;;;;;;;;;;4945953;28;20101;-75
2021/08/16 01:30:55;;;;;;;2.92;1.50;;;;;;;;;;4948597;28;20487;-75
2021/08/16 01:33:22;;;;;;;2.10;1.50;;;;;;;;;;4942574;28;20039;-75
2021/08/16 01:35:48;;;;;;;2.47;1.50;;;;;;;;;;4942555;28;20474;-74
2021/08/16 01:38:15;;;;;;;2.75;1.15;;;;;;;;;;4948003;28;20066;-74
2021/08/16 01:40:41;;;;;;;3.25;1.52;;;;;;;;;;4945605;28;20065;-74
2021/08/16 01:43:07;;;;;;;2.28;1.30;;;;;;;;;;4947426;28;20063;-73
2021/08/16 01:45:34;;;;;;;3.30;1.13;;;;;;;;;;4947523;28;20381;-75
2021/08/16 01:48:00;;;;;;;2.63;1.48;;;;;;;;;;4938222;28;20517;-75
2021/08/16 01:50:26;;;;;;;3.17;1.20;;;;;;;;;;4947837;28;20062;-74
2021/08/16 01:52:53;;;;;;;2.67;1.40;;;;;;;;;;4949288;28;20094;-75
2021/08/16 01:55:19;;;;;;;2.15;1.20;;;;;;;;;;4948818;28;20062;-74
2021/08/16 01:57:46;;;;;;;3.15;1.65;;;;;;;;;;4941989;28;20515;-75
2021/08/16 02:00:13;;;;;;;2.97;1.30;;;;;;;;;;4947710;28;20066;-76
2021/08/16 02:02:40;;;;;;;2.97;1.55;;;;;;;;;;4929599;28;20071;-76
2021/08/16 02:05:06;;;;;;;2.95;1.40;;;;;;;;;;4947443;28;20087;-75
2021/08/16 02:07:33;;;;;;;2.50;1.33;;;;;;;;;;4949109;28;20176;-75
2021/08/16 02:09:59;;;;;;;3.30;1.40;;;;;;;;;;4943907;28;20046;-76
2021/08/16 02:12:25;;;;;;;2.88;1.40;;;;;;;;;;4944426;28;20131;-76
2021/08/16 02:14:52;;;;;;;3.22;1.33;;;;;;;;;;4946925;28;20032;-76
2021/08/16 02:17:18;;;;;;;3.28;1.75;;;;;;;;;;4945159;28;20130;-75
2021/08/16 02:19:47;;;;;;;4.55;1.70;;;;;;;;;;4947047;28;20059;-76
2021/08/16 02:22:14;;;;;;;3.17;1.45;;;;;;;;;;4940347;28;20074;-75
2021/08/16 02:24:40;;;;;;;3.20;1.50;;;;;;;;;;4944724;28;20067;-75
2021/08/16 02:27:07;;;;;;;2.78;1.50;;;;;;;;;;4948837;28;20077;-75
2021/08/16 02:29:34;;;;;;;3.13;1.20;;;;;;;;;;4945614;28;20070;-75
2021/08/16 02:32:02;;;;;;;3.90;1.77;;;;;;;;;;4944061;28;20068;-75
2021/08/16 02:34:29;;;;;;;2.35;1.38;;;;;;;;;;4947236;28;20070;-76
2021/08/16 02:36:55;;;;;;;2.05;1.40;;;;;;;;;;4942174;28;20458;-76
2021/08/16 02:39:22;;;;;;;3.00;1.60;;;;;;;;;;4942252;28;20542;-76
2021/08/16 02:41:48;;;;;;;2.53;1.30;;;;;;;;;;4950596;28;20045;-76
2021/08/16 02:44:15;;;;;;;2.10;1.33;;;;;;;;;;4951426;28;20039;-75
2021/08/16 02:46:41;;;;;;;2.53;1.70;;;;;;;;;;4946928;28;20062;-75
2021/08/16 02:49:07;;;;;;;2.60;1.42;;;;;;;;;;4951384;28;20058;-75
2021/08/16 02:51:34;;;;;;;3.80;1.35;;;;;;;;;;4945313;28;20052;-75
2021/08/16 02:54:00;;;;;;;1.92;1.17;;;;;;;;;;4949910;28;20075;-75
2021/08/16 02:56:26;;;;;;;2.58;1.10;;;;;;;;;;4948720;28;20078;-75
2021/08/16 02:58:53;;;;;;;3.58;1.35;;;;;;;;;;4949209;28;20158;-75
2021/08/16 03:01:19;;;;;;;2.85;1.17;;;;;;;;;;4930230;28;20067;-76
2021/08/16 03:03:46;;;;;;;3.17;1.50;;;;;;;;;;4931158;28;20130;-76
2021/08/16 03:06:12;;;;;;;2.95;1.40;;;;;;;;;;4931325;28;20031;-75
2021/08/16 03:08:39;;;;;;;2.42;1.20;;;;;;;;;;4929503;28;20099;-75
2021/08/16 03:11:06;;;;;;;2.28;1.30;;;;;;;;;;4928608;28;20046;-75
2021/08/16 03:13:33;;;;;;;8.45;1.42;;;;;;;;;;4930500;28;20102;-75
2021/08/16 03:16:00;;;;;;;1.95;1.27;;;;;;;;;;4931317;28;20102;-75
2021/08/16 03:18:26;;;;;;;3.85;1.90;;;;;;;;;;4930828;28;20059;-76
2021/08/16 03:20:53;;;;;;;4.30;1.10;;;;;;;;;;4931807;28;20056;-75
2021/08/16 03:23:19;;;;;;;2.78;1.73;;;;;;;;;;4930877;28;20067;-73
2021/08/16 03:25:46;;;;;;;3.75;1.70;;;;;;;;;;4930205;28;20063;-75
2021/08/16 03:28:12;;;;;;;4.32;1.25;;;;;;;;;;4922634;28;20062;-75
2021/08/16 03:30:39;;;;;;;2.53;1.55;;;;;;;;;;4928446;28;20452;-75
2021/08/16 03:33:05;;;;;;;2.60;1.35;;;;;;;;;;4929624;28;20587;-76
2021/08/16 03:35:32;;;;;;;3.63;1.55;;;;;;;;;;4928895;28;20071;-74
2021/08/16 03:37:58;;;;;;;2.42;1.50;;;;;;;;;;4930414;28;20111;-74
2021/08/16 03:40:25;;;;;;;3.78;1.77;;;;;;;;;;4930186;28;20107;-73
2021/08/16 03:42:51;;;;;;;3.28;1.63;;;;;;;;;;4932546;29;20043;-74
2021/08/16 03:45:21;;;;;;;2.42;1.63;;;;;;;;;;4930869;28;20074;-74
2021/08/16 03:47:48;;;;;;;3.15;2.00;;;;;;;;;;4930294;28;20059;-73
2021/08/16 03:50:15;;;;;;;3.95;1.70;;;;;;;;;;4927793;28;20042;-73
2021/08/16 03:52:41;;;;;;;4.85;1.85;;;;;;;;;;4928960;28;20059;-74
2021/08/16 03:55:08;;;;;;;4.85;2.03;;;;;;;;;;4928927;28;20507;-73
2021/08/16 03:57:34;;;;;;;3.60;2.00;;;;;;;;;;4929071;28;20063;-74
2021/08/16 04:00:01;;;;;;;2.92;1.63;;;;;;;;;;4931676;28;20774;-74
2021/08/16 04:02:28;;;;;;;3.38;1.90;;;;;;;;;;4946407;28;20055;-74
2021/08/16 04:04:54;;;;;;;5.10;2.00;;;;;;;;;;4948961;28;20047;-75
2021/08/16 04:07:20;;;;;;;4.22;2.00;;;;;;;;;;4948388;28;20055;-75
2021/08/16 04:09:47;;;;;;;3.35;1.95;;;;;;;;;;4948050;28;20066;-74
2021/08/16 04:12:15;;;;;;;6.30;2.28;;;;;;;;;;4914617;28;20063;-74
2021/08/16 04:14:42;;;;;;;4.72;1.80;;;;;;;;;;4947344;28;20087;-75
2021/08/16 04:17:08;;;;;;;3.92;2.10;;;;;;;;;;4949050;28;20154;-75
2021/08/16 04:19:35;;;;;;;3.47;2.13;;;;;;;;;;4946866;28;20064;-75
2021/08/16 04:22:01;;;;;;;2.97;1.98;;;;;;;;;;4949328;28;20113;-75
2021/08/16 04:24:27;;;;;;;3.75;1.80;;;;;;;;;;4946694;28;20063;-74
2021/08/16 04:26:54;;;;;;;3.45;2.17;;;;;;;;;;4946494;28;20096;-74
2021/08/16 04:29:20;;;;;;;3.13;2.08;;;;;;;;;;4949410;28;20559;-75
2021/08/16 04:31:47;;;;;;;3.25;1.67;;;;;;;;;;4947575;28;21607;-74
2021/08/16 04:34:13;;;;;;;3.30;1.70;;;;;;;;;;4932000;28;20063;-75
2021/08/16 04:36:39;;;;;;;3.20;1.73;;;;;;;;;;4946069;28;20066;-75
2021/08/16 04:39:07;;;;;;;3.40;1.70;;;;;;;;;;4932731;28;20075;-75
2021/08/16 04:41:33;;;;;;;3.92;1.83;;;;;;;;;;4947650;28;20502;-77
2021/08/16 04:44:00;;;;;;;3.90;1.92;;;;;;;;;;4949595;28;20043;-75
2021/08/16 04:46:26;;;;;;;6.93;2.30;;;;;;;;;;4948137;28;20055;-78
2021/08/16 04:48:53;;;;;;;7.45;2.45;;;;;;;;;;4947022;28;20047;-78
2021/08/16 04:51:19;;;;;;;7.60;2.03;;;;;;;;;;4948299;28;20062;-78
2021/08/16 04:53:46;;;;;;;4.60;2.10;;;;;;;;;;4949312;28;20066;-78
2021/08/16 04:56:12;;;;;;;5.03;1.80;;;;;;;;;;4947420;28;20510;-78
2021/08/16 04:58:38;;;;;;;10.18;2.08;;;;;;;;;;4947978;28;20075;-77
2021/08/16 05:01:05;;;;;;;10.13;2.00;;;;;;;;;;4948035;28;20043;-77
2021/08/16 05:03:31;;;;;;;9.13;1.67;;;;;;;;;;4945922;28;20497;-78
2021/08/16 05:06:05;;;;;;;5.90;1.65;;;;;;;;;;4948108;28;20070;-77
2021/08/16 05:08:32;;;;;;;6.32;1.67;;;;;;;;;;4945859;28;20071;-77
2021/08/16 05:10:58;;;;;;;4.70;1.73;;;;;;;;;;4948248;28;20066;-77
2021/08/16 05:13:24;;;;;;;3.45;1.45;;;;;;;;;;4931907;28;20066;-82
2021/08/16 05:15:51;;;;;;;5.53;1.60;;;;;;;;;;4943568;28;20062;-78
2021/08/16 05:18:17;;;;;;;2.75;1.23;;;;;;;;;;4950223;28;20063;-78
2021/08/16 05:20:44;;;;;;;3.50;1.30;;;;;;;;;;4930450;28;20184;-78
2021/08/16 05:23:10;;;;;;;2.92;1.30;;;;;;;;;;4946335;28;20542;-78
2021/08/16 05:25:37;;;;;;;3.00;1.25;;;;;;;;;;4947643;28;20071;-78
2021/08/16 05:28:04;;;;;;;4.10;1.30;;;;;;;;;;4950176;28;20051;-78
2021/08/16 05:30:31;;;;;;;2.88;1.23;;;;;;;;;;4948825;28;20747;-77
2021/08/16 05:32:57;;;;;;;4.50;1.40;;;;;;;;;;4948139;28;20111;-78
2021/08/16 05:35:24;;;;;;;3.00;1.30;;;;;;;;;;4947240;28;20515;-78
2021/08/16 05:37:50;;;;;;;3.03;1.42;;;;;;;;;;4945075;28;20396;-79
2021/08/16 05:40:17;;;;;;;3.28;1.20;;;;;;;;;;4944313;28;20511;-79
2021/08/16 05:42:43;;;;;;;2.70;1.27;;;;;;;;;;4949456;28;20071;-79
2021/08/16 05:45:10;;;;;;;2.58;1.10;;;;;;;;;;4948429;28;20089;-79
2021/08/16 05:47:36;;;;;;;2.75;1.10;;;;;;;;;;4951192;28;20038;-77
2021/08/16 05:50:05;;;;;;;2.72;1.27;;;;;;;;;;4948984;28;20040;-78
2021/08/16 05:52:31;;;;;;;1.70;0.90;;;;;;;;;;4948596;28;20642;-78
2021/08/16 05:54:58;;;;;;;4.30;1.10;;;;;;;;;;4946594;28;20070;-79
2021/08/16 05:57:24;;;;;;;2.58;1.02;;;;;;;;;;4950085;28;20054;-78
2021/08/16 05:59:51;;;;;;;3.03;1.15;;;;;;;;;;4942139;28;20621;-78
2021/08/16 06:02:17;;;;;;;3.80;1.20;;;;;;;;;;4930328;28;20111;-78
2021/08/16 06:04:43;;;;;;;2.75;1.13;;;;;;;;;;4928353;28;20060;-78
2021/08/16 06:07:10;;;;;;;2.22;1.02;;;;;;;;;;4929217;28;20070;-78
2021/08/16 06:09:36;;;;;;;3.33;1.20;;;;;;;;;;4926985;28;20059;-78
2021/08/16 06:12:03;;;;;;;2.67;0.85;;;;;;;;;;4929365;28;20064;-79
2021/08/16 06:14:29;;;;;;;3.35;1.10;;;;;;;;;;4927050;28;20071;-77
2021/08/16 06:16:55;;;;;;;2.08;0.95;;;;;;;;;;4933573;28;20047;-77
2021/08/16 06:19:22;;;;;;;2.35;1.10;;;;;;;;;;4951060;28;20411;-77
2021/08/16 06:21:48;;;;;;;1.80;0.75;;;;;;;;;;4932483;28;20059;-77
2021/08/16 06:24:15;;;;;;;3.28;1.05;;;;;;;;;;4933655;28;20059;-78
2021/08/16 06:26:41;;;;;;;2.42;1.08;;;;;;;;;;4931655;28;20059;-78
2021/08/16 06:29:08;;;;;;;1.63;0.88;;;;;;;;;;4933492;28;20070;-78
2021/08/16 06:31:34;;;;;;;2.42;1.10;;;;;;;;;;4935244;28;20063;-77
2021/08/16 06:34:00;;;;;;;4.35;1.10;;;;;;;;;;4932896;28;20048;-77
2021/08/16 06:36:27;;;;;;;4.22;1.50;;;;;;;;;;4931600;28;20044;-77
2021/08/16 06:38:53;;;;;;;2.58;0.80;;;;;;;;;;4931432;28;20059;-79
2021/08/16 06:41:20;;;;;;;2.10;1.00;;;;;;;;;;4933997;28;20504;-77
2021/08/16 06:43:47;;;;;;;2.95;1.00;;;;;;;;;;4926534;28;20071;-77
2021/08/16 06:46:16;;;;;;;2.30;1.08;;;;;;;;;;4930267;28;20457;-77
2021/08/16 06:48:43;;;;;;;2.47;1.55;;;;;;;;;;4933052;28;20496;-77
2021/08/16 06:51:09;;;;;;;2.13;0.90;;;;;;;;;;4932396;28;20063;-77
2021/08/16 06:53:36;;;;;;;3.63;0.95;;;;;;;;;;4930218;29;20446;-76
2021/08/16 06:56:02;;;;;;;1.50;0.80;;;;;;;;;;4930920;28;20083;-76
2021/08/16 06:58:29;;;;;;;3.03;0.85;;;;;;;;;;4933161;28;20049;-76
2021/08/16 07:00:55;;;;;;;2.55;0.90;;;;;;;;;;4933654;28;20075;-78
2021/08/16 07:03:22;;;;;;;2.92;0.95;;;;;;;;;;4933912;29;20103;-79
2021/08/16 07:05:48;;;;;;;4.32;1.20;;;;;;;;;;4931398;29;20498;-78
2021/08/16 07:08:15;;;;;;;3.47;1.15;;;;;;;;;;4931849;29;20066;-78
2021/08/16 07:10:42;;;;;;;3.83;1.33;;;;;;;;;;4929774;29;20063;-77
2021/08/16 07:13:11;;;;;;;3.67;1.00;;;;;;;;;;4930388;29;20047;-78
2021/08/16 07:15:38;;;;;;;5.70;0.93;;;;;;;;;;4930882;28;20531;-77
2021/08/16 07:18:05;;;;;;;3.67;1.17;;;;;;;;;;4931128;28;20071;-77
2021/08/16 07:20:31;;;;;;;2.95;1.33;;;;;;;;;;4936857;28;20510;-77
2021/08/16 07:22:57;;;;;;;4.07;1.25;;;;;;;;;;4922215;29;20563;-79
2021/08/16 07:25:24;;;;;;;4.03;1.08;;;;;;;;;;4930208;28;20054;-79
2021/08/16 07:27:50;;;;;;;2.72;1.08;;;;;;;;;;4930239;28;20087;-77
2021/08/16 07:30:17;;;;;;;2.83;0.88;;;;;;;;;;4931829;29;20066;-78
2021/08/16 07:32:43;;;;;;;2.30;1.00;;;;;;;;;;4933002;29;20070;-79
2021/08/16 07:35:10;;;;;;;2.92;0.93;;;;;;;;;;4931575;29;20070;-79
2021/08/16 07:37:36;;;;;;;3.40;0.90;;;;;;;;;;4930881;28;20063;-78
2021/08/16 07:40:03;;;;;;;3.95;0.90;;;;;;;;;;4931404;29;20071;-77
2021/08/16 07:42:29;;;;;;;3.00;0.93;;;;;;;;;;4915496;29;20051;-77
2021/08/16 07:44:56;;;;;;;3.15;1.10;;;;;;;;;;4932530;29;20059;-80
2021/08/16 07:47:22;;;;;;;2.60;0.95;;;;;;;;;;4937598;28;20071;-79
2021/08/16 07:49:48;;;;;;;2.80;0.90;;;;;;;;;;4929240;28;20067;-79
2021/08/16 07:52:15;;;;;;;2.30;0.90;;;;;;;;;;4928935;28;20055;-79
2021/08/16 07:54:42;;;;;;;2.45;0.80;;;;;;;;;;4924874;28;20075;-77
2021/08/16 07:57:09;;;;;;;2.75;0.80;;;;;;;;;;4933337;28;20063;-79
2021/08/16 07:59:35;;;;;;;2.10;0.85;;;;;;;;;;4946131;28;20066;-78
2021/08/16 08:02:01;;;;;;;2.28;0.90;;;;;;;;;;4949893;28;20054;-79
2021/08/16 08:04:28;;;;;;;2.28;0.82;;;;;;;;;;4950570;28;20438;-77
2021/08/16 08:06:54;;;;;;;4.63;1.00;;;;;;;;;;4948729;28;20795;-79
2021/08/16 08:09:21;;;;;;;2.83;0.95;;;;;;;;;;4949609;28;20066;-77
2021/08/16 08:11:47;;;;;;;2.45;0.88;;;;;;;;;;4948464;28;20059;-79
2021/08/16 08:14:13;;;;;;;1.77;0.90;;;;;;;;;;4950678;28;20071;-79
2021/08/16 08:16:40;;;;;;;2.35;1.05;;;;;;;;;;4949209;28;20056;-78
2021/08/16 08:19:06;;;;;;;2.92;1.08;;;;;;;;;;4948104;28;20062;-78
2021/08/16 08:21:33;;;;;;;3.00;0.70;;;;;;;;;;4947144;28;20066;-78
2021/08/16 08:23:59;;;;;;;2.13;0.73;;;;;;;;;;4947286;28;20039;-79
2021/08/16 08:26:25;;;;;;;1.85;0.70;;;;;;;;;;4932137;28;20059;-77
2021/08/16 08:28:52;;;;;;;1.50;0.80;;;;;;;;;;4948906;28;20507;-77
2021/08/16 08:31:18;;;;;;;2.65;0.93;;;;;;;;;;4932496;28;20073;-77
2021/08/16 08:33:45;;;;;;;2.42;0.95;;;;;;;;;;4948009;28;20118;-78
2021/08/16 08:36:11;;;;;;;2.20;0.90;;;;;;;;;;4946736;28;20062;-78
2021/08/16 08:38:38;;;;;;;2.25;0.90;;;;;;;;;;4946496;28;20129;-76
2021/08/16 08:41:04;;;;;;;3.30;0.90;;;;;;;;;;4945121;28;20582;-76
2021/08/16 08:43:31;;;;;;;2.75;0.75;;;;;;;;;;4947620;28;20043;-76
2021/08/16 08:45:58;;;;;;;2.45;1.00;;;;;;;;;;4946824;28;20074;-79
2021/08/16 08:48:24;;;;;;;2.13;0.80;;;;;;;;;;4932971;29;20570;-77
2021/08/16 08:50:51;;;;;;;6.85;1.00;;;;;;;;;;4944122;28;20104;-77
2021/08/16 08:53:17;;;;;;;4.15;0.93;;;;;;;;;;4931556;28;20073;-77
2021/08/16 08:55:44;;;;;;;1.77;0.70;;;;;;;;;;4947414;28;20614;-77
2021/08/16 08:58:14;;;;;;;3.72;0.80;;;;;;;;;;4948997;28;20087;-77
2021/08/16 09:00:41;;;;;;;3.03;0.95;;;;;;;;;;4930351;28;20575;-78
2021/08/16 09:03:08;;;;;;;2.28;0.90;;;;;;;;;;4930841;29;20067;-76
2021/08/16 09:05:46;;;;;;;2.50;0.93;;;;;;;;;;4946904;28;20119;-76
2021/08/16 09:08:22;;;;;;;3.88;0.85;;;;;;;;;;4946985;28;20055;-77
2021/08/16 09:10:48;;;;;;;4.93;0.98;;;;;;;;;;4947241;28;20057;-77
2021/08/16 09:13:23;;;;;;;11.23;1.20;;;;;;;;;;4946935;28;20113;-77
2021/08/16 09:15:50;;;;;;;3.30;0.90;;;;;;;;;;4946455;28;20149;-77
2021/08/16 09:18:27;;;;;;;2.97;0.82;;;;;;;;;;4948946;28;20063;-78
2021/08/16 09:20:54;;;;;;;2.83;0.85;;;;;;;;;;4945856;28;20522;-78
2021/08/16 09:23:20;;;;;;;1.70;0.80;;;;;;;;;;4948833;28;20153;-77
2021/08/16 09:25:54;;;;;;;1.77;0.85;;;;;;;;;;4948001;28;20059;-78
2021/08/16 09:28:31;;;;;;;2.47;1.10;;;;;;;;;;4948595;28;20063;-78
2021/08/16 09:30:58;;;;;;;3.40;0.95;;;;;;;;;;4945452;28;20481;-78
2021/08/16 09:33:24;;;;;;;2.05;0.90;;;;;;;;;;4947089;28;20047;-78
2021/08/16 09:35:52;;;;;;;3.30;0.88;;;;;;;;;;4946213;28;20670;-78
2021/08/16 09:38:19;;;;;;;1.52;0.82;;;;;;;;;;4953211;28;20533;-78
2021/08/16 09:40:45;;;;;;;2.97;1.00;;;;;;;;;;4936136;28;21700;-78
2021/08/16 09:43:12;;;;;;;3.22;0.90;;;;;;;;;;4951908;28;20064;-77
2021/08/16 09:45:39;;;;;;;3.03;1.02;;;;;;;;;;4949993;28;20418;-77
2021/08/16 09:48:10;;;;;;;1.92;0.90;;;;;;;;;;4948919;28;20138;-77
2021/08/16 09:50:37;;;;;;;;;;;;;;;;;;4944192;28;20098;-76
2021/08/16 09:53:08;;;;;;;1.90;0.98;;;;;;;;;;4948660;28;19961;-78
2021/08/16 09:55:35;;;;;;;2.47;1.00;;;;;;;;;;4905430;28;20589;-78
2021/08/16 09:58:03;;;;;;;2.67;1.00;;;;;;;;;;4947552;28;20066;-77
2021/08/16 10:00:30;;;;;;;2.80;1.10;;;;;;;;;;4947939;28;20094;-78
2021/08/16 10:02:57;;;;;;;2.92;1.00;;;;;;;;;;4948284;28;20551;-76
2021/08/16 10:05:23;;;;;;;2.45;0.95;;;;;;;;;;4949187;28;20063;-77
2021/08/16 10:07:50;;;;;;;2.25;1.10;;;;;;;;;;4947353;28;20063;-77
2021/08/16 10:10:17;;;;;;;3.63;1.30;;;;;;;;;;4947578;28;20074;-78
2021/08/16 10:12:44;;;;;;;1.75;1.17;;;;;;;;;;4947269;28;20051;-78
2021/08/16 10:15:11;;;;;;;3.72;1.25;;;;;;;;;;4931318;28;20074;-79
2021/08/16 10:17:39;;;;;;;3.67;1.23;;;;;;;;;;4947360;28;20055;-78
2021/08/16 10:20:06;;;;;;;2.38;1.15;;;;;;;;;;4948844;28;20663;-78
2021/08/16 10:22:39;;;;;;;3.40;1.30;;;;;;;;;;4945472;28;20071;-78
2021/08/16 10:25:13;;;;;;;3.80;1.20;;;;;;;;;;4947024;28;20055;-78
2021/08/16 10:27:39;;;;;;;2.78;1.45;;;;;;;;;;4942745;28;20094;-77
2021/08/16 10:30:07;;;;;;;2.55;1.00;;;;;;;;;;4948121;28;20051;-77
2021/08/16 10:32:33;;;;;;;2.55;1.10;;;;;;;;;;4948021;28;20610;-76
2021/08/16 10:35:26;;;;;;;5.03;1.42;;;;;;;;;;4950267;28;20070;-77
2021/08/16 10:37:52;;;;;;;4.07;1.00;;;;;;;;;;4946113;28;20460;-77
2021/08/16 10:40:22;;;;;;;2.35;1.10;;;;;;;;;;4943521;28;20095;-77
2021/08/16 10:42:51;;;;;;;3.13;1.20;;;;;;;;;;4945781;28;20407;-77
2021/08/16 10:45:27;;;;;;;3.03;1.00;;;;;;;;;;4943046;28;20051;-78
2021/08/16 10:48:01;;;;;;;1.88;1.05;;;;;;;;;;4930482;28;21245;-78
2021/08/16 10:50:27;;;;;;;2.88;0.82;;;;;;;;;;4947687;28;20090;-78
2021/08/16 10:53:00;;;;;;;3.63;1.10;;;;;;;;;;4947062;28;20137;-78
2021/08/16 10:55:26;;;;;;;3.08;1.08;;;;;;;;;;4948271;28;20102;-77
2021/08/16 10:57:53;;;;;;;3.35;1.10;;;;;;;;;;4948618;28;20103;-79
2021/08/16 11:00:20;;;;;;;3.05;1.10;;;;;;;;;;4951054;28;20156;-77
2021/08/16 11:02:53;;;;;;;2.95;1.00;;;;;;;;;;4950842;28;20133;-78
2021/08/16 11:05:28;;;;;;;5.43;1.20;;;;;;;;;;4952717;28;20126;-79
2021/08/16 11:07:55;;;;;;;2.17;0.90;;;;;;;;;;4948403;28;20161;-76
2021/08/16 11:10:21;;;;;;;2.53;1.10;;;;;;;;;;4945059;28;20043;-76
2021/08/16 11:12:48;;;;;;;6.50;1.35;;;;;;;;;;4950947;28;20114;-77
2021/08/16 11:15:17;;;;;;;2.65;1.20;;;;;;;;;;4931243;29;20075;-79
2021/08/16 11:17:44;;;;;;;1.90;0.93;;;;;;;;;;4947322;28;20087;-74
2021/08/16 11:20:15;;;;;;;3.00;1.13;;;;;;;;;;4949337;28;20063;-74
2021/08/16 11:22:44;;;;;;;;;;;;;;;;;;4950144;28;20106;-73
2021/08/16 11:25:11;;;;;;;2.30;1.05;;;;;;;;;;4951298;28;19950;-75
2021/08/16 11:27:41;;;;;;;2.00;0.95;;;;;;;;;;4950576;28;20051;-75
2021/08/16 11:30:08;;;;;;;2.90;1.20;;;;;;;;;;4952154;28;20062;-75
2021/08/16 11:32:36;;;;;;;2.85;1.10;;;;;;;;;;4934200;28;20507;-75
2021/08/16 11:35:02;;;;;;;1.90;0.98;;;;;;;;;;4951345;28;20067;-76
2021/08/16 11:37:30;;;;;;;3.83;1.17;;;;;;;;;;4950124;28;20039;-77
2021/08/16 11:39:57;;;;;;;3.47;1.20;;;;;;;;;;4950623;28;20059;-75
2021/08/16 11:42:25;;;;;;;2.60;1.20;;;;;;;;;;4950314;28;20098;-74
2021/08/16 11:45:02;;;;;;;2.20;1.00;;;;;;;;;;4952714;28;20035;-76
2021/08/16 11:47:29;;;;;;;1.92;1.17;;;;;;;;;;4933699;28;20032;-75
2021/08/16 11:50:03;;;;;;;4.10;1.10;;;;;;;;;;4935944;28;20039;-75
2021/08/16 11:52:30;;;;;;;2.38;1.15;;;;;;;;;;4961404;28;20063;-76
2021/08/16 11:54:58;;;;;;;2.03;0.98;;;;;;;;;;4956991;28;20051;-76
2021/08/16 11:57:25;;;;;;;2.17;1.10;;;;;;;;;;4957620;28;20576;-75
2021/08/16 11:59:55;;;;;;;2.55;1.17;;;;;;;;;;4950458;28;20714;-74
2021/08/16 12:02:23;;;;;;;1.80;1.02;;;;;;;;;;4953566;28;20070;-75
2021/08/16 12:04:51;;;;;;;2.65;1.02;;;;;;;;;;4949460;28;20035;-75
2021/08/16 12:07:19;;;;;;;4.20;1.13;;;;;;;;;;4951530;28;20031;-74
2021/08/16 12:09:46;;;;;;;2.08;1.13;;;;;;;;;;4950244;28;20066;-74
2021/08/16 12:12:12;;;;;;;1.90;1.20;;;;;;;;;;4952165;28;20104;-74
2021/08/16 12:14:39;;;;;;;3.13;1.30;;;;;;;;;;4951514;28;20062;-75
2021/08/16 12:17:06;;;;;;;1.92;0.88;;;;;;;;;;4938698;28;20035;-75
2021/08/16 12:19:33;;;;;;;4.10;1.05;;;;;;;;;;4951764;28;20063;-75
2021/08/16 12:22:04;;;;;;;2.72;1.10;;;;;;;;;;4935847;28;20035;-75
2021/08/16 12:24:30;;;;;;;4.13;1.02;;;;;;;;;;4934369;28;20091;-75
2021/08/16 12:27:00;;;;;;;2.35;1.00;;;;;;;;;;4951598;28;20058;-75
2021/08/16 12:29:28;;;;;;;2.10;1.10;;;;;;;;;;4956978;28;20120;-74
2021/08/16 12:31:55;;;;;;;2.55;0.93;;;;;;;;;;4935025;29;20485;-75
2021/08/16 12:34:32;;;;;;;1.33;0.88;;;;;;;;;;4952121;28;20063;-77
2021/08/16 12:36:58;;;;;;;3.15;1.05;;;;;;;;;;4951449;28;21307;-75
2021/08/16 12:39:31;;;;;;;3.97;1.02;;;;;;;;;;4935017;28;20059;-75
2021/08/16 12:42:10;;;;;;;3.25;1.00;;;;;;;;;;4946423;28;21231;-75
2021/08/16 12:44:43;;;;;;;3.10;1.20;;;;;;;;;;4955636;29;20063;-75
2021/08/16 12:47:09;;;;;;;5.22;1.30;;;;;;;;;;4957516;28;20043;-76
2021/08/16 12:49:36;;;;;;;1.73;1.15;;;;;;;;;;4968813;28;20035;-76
2021/08/16 12:52:03;;;;;;;2.72;1.33;;;;;;;;;;4970220;28;20035;-75
2021/08/16 12:54:29;;;;;;;2.35;1.27;;;;;;;;;;4966410;28;20039;-75
2021/08/16 12:56:56;;;;;;;2.95;1.17;;;;;;;;;;4967400;28;20031;-75
2021/08/16 12:59:22;;;;;;;3.35;1.40;;;;;;;;;;4950853;28;20117;-75
2021/08/16 13:01:54;;;;;;;3.20;1.20;;;;;;;;;;4950755;28;20035;-75
2021/08/16 13:04:20;;;;;;;2.15;1.00;;;;;;;;;;4952460;28;20059;-75
2021/08/16 13:06:47;;;;;;;4.80;1.00;;;;;;;;;;4951375;29;20063;-74
2021/08/16 13:09:13;;;;;;;1.73;1.13;;;;;;;;;;4943322;29;20082;-75
2021/08/16 13:11:40;;;;;;;4.28;1.20;;;;;;;;;;4950802;28;20090;-76
2021/08/16 13:14:06;;;;;;;3.50;1.10;;;;;;;;;;4950656;29;20074;-75
2021/08/16 13:16:33;;;;;;;2.15;1.27;;;;;;;;;;4938813;29;20067;-75
2021/08/16 13:18:59;;;;;;;1.83;1.30;;;;;;;;;;4939011;29;20056;-75
2021/08/16 13:21:26;;;;;;;4.15;1.30;;;;;;;;;;4943811;28;20110;-75
2021/08/16 13:23:52;;;;;;;2.65;1.35;;;;;;;;;;4947292;29;21342;-75
2021/08/16 13:26:18;;;;;;;2.17;1.35;;;;;;;;;;4949141;29;20063;-74
2021/08/16 13:28:45;;;;;;;2.25;1.02;;;;;;;;;;4939188;29;20066;-76
2021/08/16 13:31:11;;;;;;;2.97;1.10;;;;;;;;;;4949245;28;20070;-75
2021/08/16 13:33:38;;;;;;;1.58;1.10;;;;;;;;;;4947470;28;20066;-75
2021/08/16 13:36:04;;;;;;;3.15;1.23;;;;;;;;;;4948981;28;20093;-75
2021/08/16 13:38:31;;;;;;;4.93;1.33;;;;;;;;;;4949526;29;20036;-76
2021/08/16 13:40:59;;;;;;;3.45;1.23;;;;;;;;;;4930168;28;20506;-75
2021/08/16 13:43:25;;;;;;;1.95;1.25;;;;;;;;;;4951701;29;20039;-75
2021/08/16 13:45:52;;;;;;;3.17;1.10;;;;;;;;;;4942211;29;20071;-76
2021/08/16 13:48:18;;;;;;;2.22;1.30;;;;;;;;;;4950711;28;20106;-76
2021/08/16 13:50:45;;;;;;;4.07;1.15;;;;;;;;;;4948559;28;20051;-76
2021/08/16 13:53:11;;;;;;;4.43;1.33;;;;;;;;;;4949664;28;20122;-75
2021/08/16 13:55:38;;;;;;;3.83;1.20;;;;;;;;;;4940433;29;20071;-75
2021/08/16 13:58:04;;;;;;;1.98;1.10;;;;;;;;;;4949306;29;20067;-75
2021/08/16 14:00:30;;;;;;;3.08;1.30;;;;;;;;;;4945064;29;20105;-76
2021/08/16 14:02:57;;;;;;;3.30;1.10;;;;;;;;;;4917540;29;20062;-76
2021/08/16 14:05:23;;;;;;;3.70;1.33;;;;;;;;;;4950378;28;20043;-75
2021/08/16 14:07:50;;;;;;;2.50;1.10;;;;;;;;;;4932586;28;20046;-76
2021/08/16 14:10:16;;;;;;;3.42;1.20;;;;;;;;;;4945670;28;20066;-76
2021/08/16 14:12:43;;;;;;;2.55;0.80;;;;;;;;;;4949359;28;20066;-77
2021/08/16 14:15:09;;;;;;;1.75;1.00;;;;;;;;;;4948391;29;20075;-75
2021/08/16 14:17:36;;;;;;;1.80;1.10;;;;;;;;;;4945688;28;20449;-76
2021/08/16 14:20:03;;;;;;;3.17;1.08;;;;;;;;;;4928700;29;20499;-75
2021/08/16 14:22:30;;;;;;;1.70;1.00;;;;;;;;;;4928028;29;20059;-75
2021/08/16 14:24:56;;;;;;;2.00;1.20;;;;;;;;;;4942719;29;20066;-74
2021/08/16 14:27:23;;;;;;;6.78;1.17;;;;;;;;;;4946680;28;20055;-76
2021/08/16 14:29:49;;;;;;;5.90;1.70;;;;;;;;;;4947286;28;20121;-74
2021/08/16 14:32:16;;;;;;;2.50;1.02;;;;;;;;;;4947823;28;20586;-74
2021/08/16 14:34:42;;;;;;;5.97;1.30;;;;;;;;;;4933701;29;20039;-75
2021/08/16 14:37:09;;;;;;;3.33;1.02;;;;;;;;;;4953485;29;21138;-74
2021/08/16 14:39:35;;;;;;;2.28;1.02;;;;;;;;;;4947425;29;20067;-75
2021/08/16 14:42:02;;;;;;;2.67;1.15;;;;;;;;;;4952050;28;20067;-76